createdAt,value
2022-08-10T00:01:03.867Z,8.73
2022-08-10T00:03:08.024Z,8.70
2022-08-10T00:05:10.807Z,9.07
2022-08-10T00:07:13.510Z,8.90
2022-08-10T00:09:16.249Z,8.95
2022-08-10T00:11:19.267Z,8.88
2022-08-10T00:13:23.545Z,8.25
2022-08-10T00:15:52.702Z,7.68
2022-08-10T00:17:49.263Z,8.70
2022-08-10T00:20:03.138Z,7.53
2022-08-10T00:22:07.124Z,8.82
2022-08-10T00:24:09.782Z,7.55
2022-08-10T00:26:12.472Z,7.13
2022-08-10T00:28:15.270Z,7.95
2022-08-10T00:30:18.003Z,7.75
2022-08-10T00:32:20.915Z,7.00
2022-08-10T00:34:23.982Z,7.35
2022-08-10T00:36:26.683Z,8.13
2022-08-10T00:38:37.193Z,8.90
2022-08-10T00:40:39.858Z,6.97
2022-08-10T00:42:42.747Z,7.75
2022-08-10T00:44:49.215Z,6.25
2022-08-10T00:46:51.872Z,5.85
2022-08-10T00:49:00.426Z,6.38
2022-08-10T00:51:03.788Z,6.30
2022-08-10T00:53:06.559Z,5.43
2022-08-10T00:55:09.411Z,5.25
2022-08-10T00:57:17.836Z,5.88
2022-08-10T00:59:21.488Z,5.47
2022-08-10T01:02:09.664Z,5.43
2022-08-10T01:04:39.651Z,4.85
2022-08-10T01:06:27.440Z,5.40
2022-08-10T01:08:40.144Z,4.85
2022-08-10T01:10:51.733Z,4.18
2022-08-10T01:13:08.777Z,4.10
2022-08-10T01:15:21.636Z,4.53
2022-08-10T01:17:49.679Z,4.40
2022-08-10T01:20:09.467Z,4.88
2022-08-10T01:22:11.955Z,3.80
2022-08-10T01:24:17.122Z,4.50
2022-08-10T01:26:57.332Z,4.32
2022-08-10T01:29:37.626Z,4.97
2022-08-10T01:31:50.016Z,3.90
2022-08-10T01:34:02.006Z,4.05
2022-08-10T01:36:20.966Z,4.50
2022-08-10T01:38:40.591Z,4.55
2022-08-10T01:40:53.930Z,4.40
2022-08-10T01:43:08.641Z,4.28
2022-08-10T01:45:14.464Z,4.28
2022-08-10T01:47:37.998Z,5.40
2022-08-10T01:49:40.688Z,4.50
2022-08-10T01:51:47.914Z,4.32
2022-08-10T01:53:56.539Z,4.93
2022-08-10T01:56:00.823Z,5.10
2022-08-10T01:58:05.767Z,5.22
2022-08-10T02:00:09.281Z,4.90
2022-08-10T02:02:15.591Z,4.63
2022-08-10T02:04:21.140Z,4.88
2022-08-10T02:06:27.025Z,3.78
2022-08-10T02:08:32.828Z,4.20
2022-08-10T02:10:39.771Z,4.43
2022-08-10T02:12:43.804Z,3.85
2022-08-10T02:15:06.323Z,4.18
2022-08-10T02:17:57.656Z,3.50
2022-08-10T02:19:39.704Z,3.75
2022-08-10T02:22:15.372Z,4.65
2022-08-10T02:24:08.936Z,4.55
2022-08-10T02:26:13.215Z,5.13
2022-08-10T02:28:27.063Z,5.10
2022-08-10T02:30:34.471Z,4.40
2022-08-10T02:32:38.876Z,4.55
2022-08-10T02:34:42.767Z,4.13
2022-08-10T02:36:52.246Z,4.47
2022-08-10T02:39:01.068Z,4.85
2022-08-10T02:45:03.058Z,4.68
2022-08-10T02:45:27.222Z,4.10
2022-08-10T02:46:22.449Z,4.20
2022-08-10T02:48:37.925Z,4.10
2022-08-10T02:50:43.406Z,4.70
2022-08-10T02:52:51.113Z,4.28
2022-08-10T02:55:11.265Z,4.00
2022-08-10T02:57:29.354Z,4.28
2022-08-10T02:59:44.735Z,3.80
2022-08-10T03:01:50.131Z,4.18
2022-08-10T03:04:00.205Z,4.55
2022-08-10T03:06:10.978Z,4.35
2022-08-10T03:08:18.638Z,4.10
2022-08-10T03:10:30.864Z,4.07
2022-08-10T03:12:38.768Z,3.78
2022-08-10T03:14:43.411Z,3.90
2022-08-10T03:16:47.932Z,4.65
2022-08-10T03:18:53.131Z,4.20
2022-08-10T03:20:57.438Z,5.20
2022-08-10T03:23:01.792Z,4.65
2022-08-10T03:25:05.083Z,5.35
2022-08-10T03:27:08.587Z,4.85
2022-08-10T03:29:11.737Z,5.63
2022-08-10T03:31:14.446Z,4.93
2022-08-10T03:33:18.274Z,5.22
2022-08-10T03:35:21.990Z,4.47
2022-08-10T03:37:24.799Z,5.10
2022-08-10T03:39:27.869Z,4.13
2022-08-10T03:41:55.732Z,5.05
2022-08-10T03:44:00.655Z,4.15
2022-08-10T03:46:08.179Z,4.70
2022-08-10T03:48:12.157Z,4.28
2022-08-10T03:50:27.976Z,4.03
2022-08-10T03:52:39.707Z,4.28
2022-08-10T03:54:43.216Z,4.32
2022-08-10T03:56:46.442Z,4.38
2022-08-10T03:58:49.353Z,4.40
2022-08-10T04:00:52.836Z,4.53
2022-08-10T04:02:56.382Z,5.25
2022-08-10T04:04:59.178Z,4.80
2022-08-10T04:07:03.815Z,4.25
2022-08-10T04:09:06.586Z,4.38
2022-08-10T04:11:10.506Z,4.22
2022-08-10T04:13:13.153Z,4.60
2022-08-10T04:15:15.765Z,5.40
2022-08-10T04:17:18.533Z,4.43
2022-08-10T04:19:49.367Z,3.90
2022-08-10T04:22:05.293Z,3.75
2022-08-10T04:24:11.105Z,4.60
2022-08-10T04:26:29.930Z,4.88
2022-08-10T04:28:33.003Z,4.25
2022-08-10T04:30:36.566Z,3.72
2022-08-10T04:32:41.118Z,4.13
2022-08-10T04:34:46.014Z,3.78
2022-08-10T04:36:51.735Z,3.95
2022-08-10T04:38:55.763Z,3.25
2022-08-10T04:40:58.876Z,4.28
2022-08-10T04:43:11.218Z,3.42
2022-08-10T04:45:15.347Z,4.32
2022-08-10T04:47:51.209Z,4.20
2022-08-10T04:49:56.297Z,5.10
2022-08-10T04:51:59.679Z,4.70
2022-08-10T04:54:06.575Z,4.40
2022-08-10T04:56:10.366Z,5.28
2022-08-10T04:58:14.432Z,4.57
2022-08-10T05:00:18.005Z,4.55
2022-08-10T05:02:31.037Z,4.35
2022-08-10T05:04:38.982Z,4.43
2022-08-10T05:06:42.311Z,4.50
2022-08-10T05:08:44.967Z,3.88
2022-08-10T05:10:47.623Z,4.07
2022-08-10T05:12:50.272Z,3.70
2022-08-10T05:14:53.106Z,3.75
2022-08-10T05:16:57.365Z,3.72
2022-08-10T05:18:59.969Z,4.32
2022-08-10T05:21:02.724Z,3.50
2022-08-10T05:23:05.508Z,3.80
2022-08-10T05:25:17.327Z,3.30
2022-08-10T05:27:20.002Z,3.47
2022-08-10T05:29:22.952Z,3.90
2022-08-10T05:31:25.855Z,3.53
2022-08-10T05:33:28.481Z,3.20
2022-08-10T05:35:52.395Z,3.55
2022-08-10T05:38:11.451Z,3.53
2022-08-10T05:40:17.819Z,4.00
2022-08-10T05:42:21.981Z,3.17
2022-08-10T05:44:25.387Z,4.18
2022-08-10T05:46:28.608Z,4.03
2022-08-10T05:48:53.922Z,4.40
2022-08-10T05:50:54.232Z,3.60
2022-08-10T05:52:57.844Z,4.18
2022-08-10T05:55:02.910Z,3.90
2022-08-10T05:57:06.851Z,3.80
2022-08-10T05:59:16.026Z,4.38
2022-08-10T06:01:44.780Z,3.60
2022-08-10T06:04:10.392Z,4.28
2022-08-10T06:06:14.218Z,3.83
2022-08-10T06:08:20.292Z,3.60
2022-08-10T06:10:31.910Z,4.28
2022-08-10T06:12:55.207Z,4.43
2022-08-10T06:15:05.657Z,3.85
2022-08-10T06:17:14.067Z,3.67
2022-08-10T06:19:17.727Z,3.80
2022-08-10T06:21:21.163Z,4.32
2022-08-10T06:23:25.971Z,4.03
2022-08-10T06:26:08.519Z,4.13
2022-08-10T06:27:55.504Z,4.35
2022-08-10T06:30:01.315Z,4.13
2022-08-10T06:32:05.945Z,4.72
2022-08-10T06:34:11.127Z,5.28
2022-08-10T06:36:15.527Z,5.43
2022-08-10T06:38:19.151Z,5.50
2022-08-10T06:40:22.920Z,6.40
2022-08-10T06:42:34.015Z,5.80
2022-08-10T06:46:48.713Z,5.22
2022-08-10T06:48:55.950Z,4.68
2022-08-10T06:51:05.299Z,4.95
2022-08-10T06:53:20.252Z,5.03
2022-08-10T06:55:39.984Z,3.92
2022-08-10T06:57:59.404Z,4.68
2022-08-10T07:00:05.943Z,4.70
2022-08-10T07:02:13.418Z,5.53
2022-08-10T07:04:31.936Z,4.70
2022-08-10T07:06:37.522Z,4.22
2022-08-10T07:08:41.591Z,4.65
2022-08-10T07:10:46.843Z,4.00
2022-08-10T07:12:52.863Z,4.38
2022-08-10T07:14:57.253Z,3.80
2022-08-10T07:17:00.631Z,4.38
2022-08-10T07:19:04.653Z,4.40
2022-08-10T07:21:08.725Z,4.43
2022-08-10T07:23:56.789Z,5.85
2022-08-10T07:25:38.665Z,5.68
2022-08-10T07:28:00.627Z,6.40
2022-08-10T07:30:05.195Z,6.10
2022-08-10T07:32:09.194Z,5.72
2022-08-10T07:34:21.735Z,6.22
2022-08-10T07:36:35.728Z,6.57
2022-08-10T07:38:40.908Z,5.90
2022-08-10T07:40:45.473Z,6.10
2022-08-10T07:42:53.995Z,7.75
2022-08-10T07:44:57.107Z,4.60
2022-08-10T07:47:04.410Z,4.63
2022-08-10T07:49:19.232Z,5.00
2022-08-10T07:51:23.432Z,5.25
2022-08-10T07:53:30.868Z,5.45
2022-08-10T07:56:05.317Z,4.97
2022-08-10T07:58:00.869Z,5.05
2022-08-10T08:00:08.776Z,4.97
2022-08-10T08:02:23.837Z,5.03
2022-08-10T08:04:29.073Z,5.40
2022-08-10T08:06:33.866Z,5.10
2022-08-10T08:08:38.923Z,5.28
2022-08-10T08:10:42.504Z,4.80
2022-08-10T08:12:46.591Z,4.63
2022-08-10T08:14:51.351Z,4.70
2022-08-10T08:16:55.959Z,4.75
2022-08-10T08:19:26.355Z,3.85
2022-08-10T08:24:06.313Z,3.97
2022-08-10T08:24:06.696Z,3.03
2022-08-10T08:26:15.520Z,3.33
2022-08-10T08:28:19.202Z,3.58
2022-08-10T08:30:27.861Z,3.60
2022-08-10T08:32:33.647Z,3.22
2022-08-10T08:34:43.040Z,3.88
2022-08-10T08:36:47.177Z,3.83
2022-08-10T08:38:51.546Z,4.28
2022-08-10T08:41:04.157Z,3.92
2022-08-10T08:43:21.417Z,3.80
2022-08-10T08:45:58.667Z,4.18
2022-08-10T08:48:20.110Z,3.83
2022-08-10T08:50:57.171Z,4.10
2022-08-10T08:54:02.982Z,3.55
2022-08-10T08:56:28.672Z,3.83
2022-08-10T08:59:08.884Z,3.80
2022-08-10T09:01:43.667Z,4.20
2022-08-10T09:04:07.063Z,4.47
2022-08-10T09:06:33.486Z,3.38
2022-08-10T09:09:06.381Z,3.50
2022-08-10T09:11:30.991Z,4.13
2022-08-10T09:13:59.079Z,3.40
2022-08-10T09:16:24.470Z,3.65
2022-08-10T09:19:01.936Z,3.88
2022-08-10T09:21:13.644Z,3.42
2022-08-10T09:24:04.212Z,3.70
2022-08-10T09:28:07.102Z,3.42
2022-08-10T09:30:13.318Z,3.75
2022-08-10T09:36:15.122Z,3.20
2022-08-10T09:36:29.756Z,3.05
2022-08-10T09:38:01.332Z,3.20
2022-08-10T09:40:59.769Z,3.20
2022-08-10T09:43:26.737Z,3.03
2022-08-10T09:45:35.168Z,3.30
2022-08-10T09:48:10.016Z,3.10
2022-08-10T09:50:19.218Z,2.65
2022-08-10T09:52:40.401Z,2.85
2022-08-10T09:55:03.930Z,3.15
2022-08-10T09:57:44.166Z,3.25
2022-08-10T10:00:05.683Z,3.17
2022-08-10T10:02:27.868Z,2.80
2022-08-10T10:05:01.343Z,3.17
2022-08-10T10:07:08.822Z,2.88
2022-08-10T10:09:26.632Z,3.35
2022-08-10T10:11:53.402Z,2.85
2022-08-10T10:15:10.024Z,3.33
2022-08-10T10:17:40.673Z,3.58
2022-08-10T10:19:53.960Z,3.30
2022-08-10T10:21:56.817Z,4.60
2022-08-10T10:24:20.435Z,4.43
2022-08-10T10:27:22.048Z,4.38
2022-08-10T10:29:58.078Z,4.68
2022-08-10T10:32:04.216Z,4.53
2022-08-10T10:34:16.792Z,4.13
2022-08-10T10:36:21.098Z,4.55
2022-08-10T10:38:27.683Z,3.55
2022-08-10T10:40:39.550Z,3.08
2022-08-10T10:43:01.130Z,2.60
2022-08-10T10:45:06.963Z,2.88
2022-08-10T10:47:28.078Z,3.22
2022-08-10T10:49:36.437Z,3.22
2022-08-10T10:51:48.437Z,3.00
2022-08-10T10:54:15.855Z,3.20
2022-08-10T10:56:28.530Z,3.10
2022-08-10T10:58:41.431Z,3.13
2022-08-10T11:00:53.419Z,3.35
2022-08-10T11:03:08.278Z,3.03
2022-08-10T11:05:34.003Z,3.65
2022-08-10T11:07:45.857Z,3.03
2022-08-10T11:10:05.131Z,3.33
2022-08-10T11:12:32.220Z,3.55
2022-08-10T11:14:47.804Z,3.42
2022-08-10T11:17:01.340Z,4.15
2022-08-10T11:19:23.748Z,3.65
2022-08-10T11:21:35.055Z,4.25
2022-08-10T11:24:42.611Z,4.35
2022-08-10T11:26:29.298Z,4.60
2022-08-10T11:28:41.176Z,5.60
2022-08-10T11:31:07.333Z,5.30
2022-08-10T11:34:04.094Z,5.15
2022-08-10T11:36:29.192Z,5.03
2022-08-10T11:38:42.856Z,5.10
2022-08-10T11:42:05.208Z,5.40
2022-08-10T11:43:35.875Z,5.60
2022-08-10T11:45:52.224Z,5.32
2022-08-10T11:48:54.289Z,6.20
2022-08-10T11:50:51.815Z,6.00
2022-08-10T11:53:07.292Z,4.85
2022-08-10T11:55:29.444Z,4.95
2022-08-10T11:57:54.482Z,5.88
2022-08-10T11:59:58.146Z,5.68
2022-08-10T12:02:03.051Z,5.70
2022-08-10T12:04:10.812Z,5.90
2022-08-10T12:06:33.696Z,5.47
2022-08-10T12:10:03.841Z,6.13
2022-08-10T12:11:18.129Z,5.95
2022-08-10T12:13:31.584Z,5.82
2022-08-10T12:15:41.634Z,5.03
2022-08-10T12:17:50.178Z,4.53
2022-08-10T12:20:06.887Z,5.53
2022-08-10T12:22:16.420Z,6.00
2022-08-10T12:24:26.331Z,5.15
2022-08-10T12:26:38.667Z,6.47
2022-08-10T12:28:51.917Z,6.35
2022-08-10T12:30:58.228Z,7.20
2022-08-10T12:33:08.589Z,6.45
2022-08-10T12:35:33.146Z,6.80
2022-08-10T12:37:50.743Z,6.53
2022-08-10T12:40:33.270Z,6.15
2022-08-10T12:42:38.837Z,6.65
2022-08-10T12:44:50.655Z,6.32
2022-08-10T12:47:01.360Z,6.65
2022-08-10T12:49:25.259Z,6.35
2022-08-10T12:51:30.660Z,6.70
2022-08-10T12:53:39.129Z,6.63
2022-08-10T12:55:42.985Z,6.65
2022-08-10T12:57:52.675Z,6.82
2022-08-10T13:00:00.424Z,6.80
2022-08-10T13:02:06.187Z,6.43
2022-08-10T13:04:21.915Z,6.22
2022-08-10T13:06:29.364Z,6.43
2022-08-10T13:08:54.365Z,7.18
2022-08-10T13:11:02.679Z,6.45
2022-08-10T13:13:05.819Z,6.55
2022-08-10T13:15:46.083Z,6.63
2022-08-10T13:17:52.504Z,6.80
2022-08-10T13:20:03.423Z,5.82
2022-08-10T13:22:13.198Z,6.60
2022-08-10T13:24:20.505Z,7.28
2022-08-10T13:26:26.768Z,6.82
2022-08-10T13:29:02.012Z,6.63
2022-08-10T13:31:11.714Z,7.10
2022-08-10T13:34:03.603Z,6.95
2022-08-10T13:35:56.228Z,5.97
2022-08-10T13:38:03.944Z,5.70
2022-08-10T13:40:11.838Z,6.28
2022-08-10T13:42:15.651Z,7.00
2022-08-10T13:44:43.549Z,6.60
2022-08-10T13:46:55.167Z,5.57
2022-08-10T13:49:03.373Z,6.00
2022-08-10T13:51:07.519Z,5.70
2022-08-10T13:53:15.842Z,6.15
2022-08-10T13:55:24.240Z,6.32
2022-08-10T13:57:37.012Z,6.70
2022-08-10T14:00:34.048Z,6.30
2022-08-10T14:02:14.514Z,6.50
2022-08-10T14:04:19.971Z,6.75
2022-08-10T14:06:29.610Z,7.03
2022-08-10T14:08:35.542Z,6.35
2022-08-10T14:11:08.644Z,6.75
2022-08-10T14:13:07.753Z,6.40
2022-08-10T14:15:15.803Z,5.40
2022-08-10T14:17:22.460Z,5.75
2022-08-10T14:19:27.824Z,4.90
2022-08-10T14:21:39.480Z,5.88
2022-08-10T14:23:52.422Z,5.35
2022-08-10T14:26:04.165Z,5.65
2022-08-10T14:28:09.691Z,6.20
2022-08-10T14:30:17.179Z,5.88
2022-08-10T14:32:24.049Z,5.22
2022-08-10T14:36:14.786Z,5.30
2022-08-10T14:37:06.144Z,6.00
2022-08-10T14:39:12.658Z,5.32
2022-08-10T14:42:04.500Z,5.80
2022-08-10T14:44:01.084Z,5.18
2022-08-10T14:46:19.813Z,5.40
2022-08-10T14:48:32.842Z,4.95
2022-08-10T14:50:36.160Z,5.13
2022-08-10T14:52:44.419Z,6.00
2022-08-10T14:54:50.624Z,5.55
2022-08-10T14:56:53.893Z,4.50
2022-08-10T14:59:09.392Z,5.20
2022-08-10T15:01:19.081Z,4.70
2022-08-10T15:03:59.401Z,5.15
2022-08-10T15:05:50.537Z,5.03
2022-08-10T15:07:58.712Z,4.68
2022-08-10T15:10:04.622Z,5.95
2022-08-10T15:12:14.034Z,5.25
2022-08-10T15:14:43.428Z,8.88
2022-08-10T15:16:47.556Z,5.03
2022-08-10T15:18:57.810Z,5.05
2022-08-10T15:21:17.097Z,4.30
2022-08-10T15:23:30.833Z,4.85
2022-08-10T15:25:57.788Z,6.22
2022-08-10T15:28:06.658Z,6.15
2022-08-10T15:30:12.122Z,5.45
2022-08-10T15:32:33.350Z,12.00
2022-08-10T15:34:55.041Z,5.53
2022-08-10T15:37:40.564Z,4.75
2022-08-10T15:40:25.174Z,3.78
2022-08-10T15:42:10.606Z,3.95
2022-08-10T15:44:13.410Z,3.58
2022-08-10T15:46:30.073Z,4.35
2022-08-10T15:48:48.271Z,4.80
2022-08-10T15:51:01.058Z,4.38
2022-08-10T15:53:16.791Z,4.18
2022-08-10T15:55:41.282Z,4.75
2022-08-10T15:57:56.982Z,4.10
2022-08-10T16:00:07.947Z,4.75
2022-08-10T16:02:17.767Z,4.47
2022-08-10T16:04:32.400Z,4.40
2022-08-10T16:06:42.095Z,3.85
2022-08-10T16:08:57.210Z,4.65
2022-08-10T16:11:16.794Z,3.90
2022-08-10T16:13:50.663Z,3.90
2022-08-10T16:15:53.253Z,3.90
2022-08-10T16:18:01.691Z,4.15
2022-08-10T16:20:05.620Z,4.10
2022-08-10T16:22:36.466Z,4.57
2022-08-10T16:24:39.004Z,4.85
2022-08-10T16:26:46.625Z,5.15
2022-08-10T16:28:56.426Z,4.05
2022-08-10T16:31:01.949Z,4.47
2022-08-10T16:33:05.579Z,4.15
2022-08-10T16:35:15.764Z,4.43
2022-08-10T16:37:21.190Z,4.20
2022-08-10T16:39:58.506Z,4.80
2022-08-10T16:42:05.013Z,4.28
2022-08-10T16:44:11.154Z,4.75
2022-08-10T16:46:16.992Z,4.80
2022-08-10T16:48:49.418Z,4.53
2022-08-10T16:50:55.812Z,5.45
2022-08-10T16:53:02.379Z,5.13
2022-08-10T16:55:23.390Z,4.72
2022-08-10T16:57:30.171Z,5.10
2022-08-10T16:59:38.030Z,4.82
2022-08-10T17:01:42.161Z,4.72
2022-08-10T17:04:07.862Z,4.65
2022-08-10T17:06:18.100Z,4.70
2022-08-10T17:08:22.935Z,4.95
2022-08-10T17:10:29.767Z,5.07
2022-08-10T17:12:33.848Z,4.95
2022-08-10T17:14:39.404Z,4.78
2022-08-10T17:16:45.392Z,5.25
2022-08-10T17:18:48.758Z,5.63
2022-08-10T17:20:51.674Z,5.20
2022-08-10T17:23:00.621Z,5.40
2022-08-10T17:25:11.417Z,4.97
2022-08-10T17:28:05.880Z,4.20
2022-08-10T17:29:58.691Z,5.38
2022-08-10T17:32:15.968Z,5.57
2022-08-10T17:34:24.999Z,5.13
2022-08-10T17:36:32.851Z,6.25
2022-08-10T17:38:38.375Z,5.85
2022-08-10T17:41:11.889Z,5.28
2022-08-10T17:44:00.805Z,6.05
2022-08-10T17:45:52.213Z,4.97
2022-08-10T17:47:58.438Z,5.75
2022-08-10T17:50:01.647Z,4.75
2022-08-10T17:52:10.893Z,4.75
2022-08-10T17:54:28.213Z,5.55
2022-08-10T17:56:34.750Z,5.00
2022-08-10T17:58:46.427Z,5.97
2022-08-10T18:00:51.815Z,5.95
2022-08-10T18:02:55.394Z,5.57
2022-08-10T18:04:59.877Z,6.22
2022-08-10T18:07:03.659Z,5.60
2022-08-10T18:09:17.707Z,6.22
2022-08-10T18:11:20.717Z,6.40
2022-08-10T18:13:25.940Z,5.97
2022-08-10T18:15:31.845Z,6.20
2022-08-10T18:17:41.086Z,6.60
2022-08-10T18:19:47.075Z,5.60
2022-08-10T18:21:50.748Z,6.45
2022-08-10T18:23:59.525Z,5.80
2022-08-10T18:26:06.454Z,6.03
2022-08-10T18:28:15.582Z,6.03
2022-08-10T18:30:20.018Z,5.53
2022-08-10T18:32:26.306Z,5.97
2022-08-10T18:34:32.157Z,6.10
2022-08-10T18:36:40.882Z,5.97
2022-08-10T18:38:47.906Z,6.75
2022-08-10T18:41:02.923Z,5.82
2022-08-10T18:44:06.735Z,5.75
2022-08-10T18:45:36.783Z,6.72
2022-08-10T18:47:59.101Z,6.45
2022-08-10T18:50:17.423Z,6.18
2022-08-10T18:52:23.981Z,6.32
2022-08-10T18:54:44.392Z,6.15
2022-08-10T18:56:59.906Z,6.90
2022-08-10T18:59:38.597Z,6.57
2022-08-10T19:02:04.942Z,5.72
2022-08-10T19:04:27.792Z,6.50
2022-08-10T19:07:00.999Z,6.35
2022-08-10T19:09:47.411Z,6.20
2022-08-10T19:11:56.519Z,5.75
2022-08-10T19:14:07.739Z,6.45
2022-08-10T19:16:35.607Z,6.65
2022-08-10T19:18:47.856Z,5.97
2022-08-10T19:20:57.651Z,6.38
2022-08-10T19:23:15.422Z,6.38
2022-08-10T19:26:39.329Z,5.15
2022-08-10T19:28:11.699Z,6.25
2022-08-10T19:30:18.426Z,5.80
2022-08-10T19:32:32.664Z,5.95
2022-08-10T19:34:38.120Z,5.50
2022-08-10T19:36:55.365Z,5.13
2022-08-10T19:39:29.322Z,6.10
2022-08-10T19:41:44.720Z,4.63
2022-08-10T19:44:03.376Z,5.35
2022-08-10T19:46:30.517Z,5.55
2022-08-10T19:48:52.751Z,5.57
2022-08-10T19:51:04.716Z,5.55
2022-08-10T19:53:19.687Z,5.57
2022-08-10T19:55:33.606Z,6.10
2022-08-10T19:57:44.460Z,5.60
2022-08-10T20:00:06.270Z,5.78
2022-08-10T20:02:23.584Z,4.88
2022-08-10T20:04:33.402Z,5.45
2022-08-10T20:06:47.887Z,5.18
2022-08-10T20:09:01.920Z,5.68
2022-08-10T20:11:45.531Z,4.75
2022-08-10T20:13:51.486Z,5.13
2022-08-10T20:16:03.191Z,5.28
2022-08-10T20:18:15.243Z,5.45
2022-08-10T20:20:48.572Z,5.57
2022-08-10T20:23:02.036Z,4.93
2022-08-10T20:25:14.060Z,6.03
2022-08-10T20:28:14.584Z,5.40
2022-08-10T20:30:01.200Z,4.63
2022-08-10T20:32:10.755Z,5.13
2022-08-10T20:34:42.515Z,5.72
2022-08-10T20:37:02.410Z,4.97
2022-08-10T20:39:16.769Z,5.38
2022-08-10T20:41:55.272Z,5.75
2022-08-10T20:44:12.619Z,5.65
2022-08-10T20:46:25.090Z,5.07
2022-08-10T20:48:40.736Z,5.65
2022-08-10T20:50:57.283Z,4.90
2022-08-10T20:53:23.390Z,4.55
2022-08-10T20:55:33.974Z,4.97
2022-08-10T20:58:27.031Z,5.32
2022-08-10T21:01:12.578Z,5.57
2022-08-10T21:03:43.686Z,5.43
2022-08-10T21:06:04.980Z,5.22
2022-08-10T21:08:58.634Z,4.68
2022-08-10T21:11:07.510Z,5.22
2022-08-10T21:13:21.692Z,5.43
2022-08-10T21:15:55.465Z,4.63
2022-08-10T21:18:20.451Z,5.10
2022-08-10T21:20:47.028Z,4.93
2022-08-10T21:22:51.767Z,4.63
2022-08-10T21:25:05.250Z,4.75
2022-08-10T21:27:41.821Z,5.35
2022-08-10T21:29:53.899Z,4.97
2022-08-10T21:32:31.831Z,4.82
2022-08-10T21:34:54.388Z,5.20
2022-08-10T21:37:22.895Z,4.60
2022-08-10T21:39:52.878Z,4.78
2022-08-10T21:42:43.659Z,4.78
2022-08-10T21:45:58.104Z,4.82
2022-08-10T21:48:40.580Z,4.75
2022-08-10T21:51:16.574Z,4.80
2022-08-10T21:53:55.205Z,5.13
2022-08-10T21:56:23.071Z,5.00
2022-08-10T21:59:10.022Z,5.45
2022-08-10T22:01:39.757Z,5.05
2022-08-10T22:04:02.708Z,5.57
2022-08-10T22:06:24.465Z,4.97
2022-08-10T22:08:55.978Z,5.10
2022-08-10T22:11:20.179Z,4.90
2022-08-10T22:13:42.922Z,5.80
2022-08-10T22:16:14.585Z,5.53
2022-08-10T22:18:53.713Z,5.07
2022-08-10T22:21:53.086Z,4.65
2022-08-10T22:24:34.776Z,5.30
2022-08-10T22:27:12.888Z,5.65
2022-08-10T22:29:58.457Z,4.68
2022-08-10T22:32:39.651Z,4.95
2022-08-10T22:35:46.672Z,4.97
2022-08-10T22:38:25.063Z,6.05
2022-08-10T22:40:46.403Z,5.45
2022-08-10T22:43:12.193Z,5.40
2022-08-10T22:45:37.392Z,5.43
2022-08-10T22:47:58.441Z,5.65
2022-08-10T22:50:07.676Z,5.05
2022-08-10T22:52:17.107Z,5.68
2022-08-10T22:55:06.459Z,5.05
2022-08-10T22:57:34.645Z,4.88
2022-08-10T22:59:37.441Z,5.63
2022-08-10T23:02:07.450Z,5.63
2022-08-10T23:04:34.775Z,5.75
2022-08-10T23:06:40.265Z,5.18
2022-08-10T23:08:50.525Z,5.68
2022-08-10T23:10:55.859Z,5.68
2022-08-10T23:13:05.870Z,5.65
2022-08-10T23:15:37.411Z,6.57
2022-08-10T23:18:01.214Z,5.88
2022-08-10T23:20:10.972Z,6.05
2022-08-10T23:22:16.520Z,5.70
2022-08-10T23:24:35.521Z,6.15
2022-08-10T23:26:39.340Z,5.60
2022-08-10T23:28:58.454Z,5.88
2022-08-10T23:31:03.014Z,6.47
2022-08-10T23:33:08.622Z,6.50
2022-08-10T23:36:29.523Z,6.07
2022-08-10T23:37:40.699Z,6.10
2022-08-10T23:39:48.619Z,6.07
2022-08-10T23:41:55.299Z,6.05
2022-08-10T23:44:04.127Z,6.97
2022-08-10T23:46:09.176Z,6.53
2022-08-10T23:48:17.994Z,6.25
2022-08-10T23:50:22.493Z,6.60
2022-08-10T23:52:32.211Z,6.10
2022-08-10T23:54:41.630Z,6.32
2022-08-10T23:56:48.147Z,6.40
2022-08-10T23:58:54.416Z,6.38
